Time;durP1;ratioP1;P1;durP2;ratioP2;P2;SDS_P1;SDS_P2;PMS_P1;PMS_P2;Temp;Humidity;BMP_temperature;BMP_pressure;BME280_temperature;BME280_humidity;BME280_pressure;Samples;Min_cycle;Max_cycle;Signal;HPM_P1;HPM_P2
2022/01/27 00:02:44;;;;;;;787.85;333.20;;;;;;;;;;5062899;28;20039;-75
2022/01/27 00:07:37;;;;;;;789.85;336.58;;;;;;;;;;5062316;28;20687;-75
2022/01/27 00:10:31;;;;;;;785.67;331.73;;;;;;;;;;5064276;28;20945;-75
2022/01/27 00:12:57;;;;;;;788.20;329.63;;;;;;;;;;5066203;28;20012;-75
2022/01/27 00:15:30;;;;;;;782.80;320.90;;;;;;;;;;5039182;28;20041;-76
2022/01/27 00:18:00;;;;;;;788.08;330.35;;;;;;;;;;5064049;28;20430;-75
2022/01/27 00:20:26;;;;;;;786.40;334.20;;;;;;;;;;5063344;28;20106;-75
2022/01/27 00:22:52;;;;;;;786.78;329.10;;;;;;;;;;5070301;28;20036;-75
2022/01/27 00:25:18;;;;;;;788.35;334.27;;;;;;;;;;5047510;28;20032;-75
2022/01/27 00:27:44;;;;;;;787.70;335.48;;;;;;;;;;5043396;28;20684;-75
2022/01/27 00:30:11;;;;;;;793.75;345.48;;;;;;;;;;5047427;28;20029;-75
2022/01/27 00:32:37;;;;;;;791.45;340.05;;;;;;;;;;5062015;28;20037;-75
2022/01/27 00:35:04;;;;;;;790.25;338.38;;;;;;;;;;5034693;28;20021;-75
2022/01/27 00:37:30;;;;;;;791.40;341.25;;;;;;;;;;5058898;28;20503;-75
2022/01/27 00:39:56;;;;;;;787.30;338.63;;;;;;;;;;5041587;28;20105;-75
2022/01/27 00:42:23;;;;;;;789.15;336.08;;;;;;;;;;5033590;28;20158;-75
2022/01/27 00:44:49;;;;;;;785.97;338.80;;;;;;;;;;5040276;28;20119;-75
2022/01/27 00:47:15;;;;;;;791.33;341.95;;;;;;;;;;5058762;28;20039;-75
2022/01/27 00:49:41;;;;;;;789.92;346.30;;;;;;;;;;5035257;28;20040;-75
2022/01/27 00:52:11;;;;;;;788.90;342.83;;;;;;;;;;5059572;28;20495;-76
2022/01/27 00:54:37;;;;;;;797.10;342.80;;;;;;;;;;5058691;28;20044;-75
2022/01/27 00:57:13;;;;;;;790.55;336.42;;;;;;;;;;5034883;28;20032;-76
2022/01/27 00:59:58;;;;;;;788.22;338.00;;;;;;;;;;5040348;28;20032;-75
2022/01/27 01:02:40;;;;;;;791.30;341.23;;;;;;;;;;5058259;28;20120;-75
2022/01/27 01:05:25;;;;;;;788.80;331.27;;;;;;;;;;5056763;28;20472;-76
2022/01/27 01:07:55;;;;;;;791.38;338.27;;;;;;;;;;5059605;28;20032;-75
2022/01/27 01:15:38;;;;;;;788.17;330.95;;;;;;;;;;5057372;28;20493;-76
2022/01/27 01:20:49;;;;;;;781.33;327.27;;;;;;;;;;5059405;28;20140;-75
2022/01/27 01:34:22;;;;;;;789.55;337.38;;;;;;;;;;5058588;28;20039;-75
2022/01/27 01:36:57;;;;;;;785.00;332.85;;;;;;;;;;5057389;28;20044;-75
2022/01/27 01:39:24;;;;;;;790.92;344.50;;;;;;;;;;5057823;28;20071;-75
2022/01/27 01:41:51;;;;;;;789.45;345.63;;;;;;;;;;5037822;28;20392;-75
2022/01/27 01:44:17;;;;;;;791.60;342.02;;;;;;;;;;5058110;28;20465;-75
2022/01/27 01:46:42;;;;;;;790.53;344.33;;;;;;;;;;5035444;28;20181;-75
2022/01/27 01:49:08;;;;;;;790.22;345.42;;;;;;;;;;5056597;28;20371;-74
2022/01/27 01:51:35;;;;;;;791.55;344.77;;;;;;;;;;5057088;28;20153;-75
2022/01/27 01:54:02;;;;;;;792.50;352.40;;;;;;;;;;5057641;28;20104;-75
2022/01/27 01:56:28;;;;;;;790.92;346.40;;;;;;;;;;5037962;28;20396;-75
2022/01/27 01:58:54;;;;;;;790.88;343.80;;;;;;;;;;5057453;28;20024;-76
2022/01/27 02:01:21;;;;;;;793.08;349.83;;;;;;;;;;5057431;28;20346;-75
2022/01/27 02:03:47;;;;;;;786.03;344.58;;;;;;;;;;5056610;28;20267;-75
2022/01/27 02:06:20;;;;;;;789.15;343.20;;;;;;;;;;5058929;28;20423;-75
2022/01/27 02:09:51;;;;;;;786.92;339.88;;;;;;;;;;5052086;28;20078;-75
2022/01/27 02:19:57;;;;;;;790.08;337.10;;;;;;;;;;5055421;28;20055;-75
2022/01/27 02:22:23;;;;;;;788.75;336.73;;;;;;;;;;5032740;28;20079;-75
2022/01/27 02:24:53;;;;;;;786.22;343.10;;;;;;;;;;5056926;28;20028;-75
2022/01/27 02:27:20;;;;;;;786.80;338.05;;;;;;;;;;5057790;28;20051;-75
2022/01/27 02:29:46;;;;;;;789.85;344.88;;;;;;;;;;5057245;28;20067;-75
2022/01/27 02:32:13;;;;;;;786.75;344.05;;;;;;;;;;5035601;28;20032;-75
2022/01/27 02:34:40;;;;;;;792.00;343.83;;;;;;;;;;5037400;28;20042;-75
2022/01/27 02:37:06;;;;;;;792.53;346.00;;;;;;;;;;5056768;28;20047;-75
2022/01/27 02:39:32;;;;;;;791.72;343.20;;;;;;;;;;5058315;28;20060;-75
2022/01/27 02:42:05;;;;;;;787.40;338.67;;;;;;;;;;5054183;28;20052;-75
2022/01/27 02:44:44;;;;;;;792.65;346.77;;;;;;;;;;5039049;28;20626;-75
2022/01/27 02:47:10;;;;;;;792.05;340.67;;;;;;;;;;5057260;28;20087;-75
2022/01/27 02:49:37;;;;;;;792.55;347.42;;;;;;;;;;5055603;28;20032;-75
2022/01/27 02:52:03;;;;;;;794.08;348.30;;;;;;;;;;5054930;28;20035;-75
2022/01/27 02:54:29;;;;;;;791.83;341.40;;;;;;;;;;5036236;28;20600;-75
2022/01/27 02:56:55;;;;;;;790.30;342.10;;;;;;;;;;5041451;28;20127;-75
2022/01/27 02:59:21;;;;;;;791.20;347.33;;;;;;;;;;5056683;28;20039;-75
2022/01/27 03:01:48;;;;;;;794.13;346.65;;;;;;;;;;5038381;28;20086;-75
2022/01/27 03:04:14;;;;;;;791.17;348.77;;;;;;;;;;5057278;28;20025;-75
2022/01/27 03:06:40;;;;;;;793.13;353.75;;;;;;;;;;5033630;28;20044;-75
2022/01/27 03:09:06;;;;;;;794.45;348.35;;;;;;;;;;5058488;28;20032;-76
2022/01/27 03:11:44;;;;;;;797.97;351.65;;;;;;;;;;5057563;28;21033;-74
2022/01/27 03:14:11;;;;;;;793.78;345.67;;;;;;;;;;5055118;28;20072;-75
2022/01/27 03:16:37;;;;;;;788.42;343.17;;;;;;;;;;5057031;28;20043;-75
2022/01/27 03:19:03;;;;;;;786.45;338.33;;;;;;;;;;5035145;28;20403;-75
2022/01/27 03:21:29;;;;;;;793.30;343.67;;;;;;;;;;5034405;28;20051;-75
2022/01/27 03:23:55;;;;;;;787.15;343.00;;;;;;;;;;5055382;28;20032;-75
2022/01/27 03:26:22;;;;;;;789.42;337.33;;;;;;;;;;5038496;28;20028;-75
2022/01/27 03:28:48;;;;;;;789.00;338.13;;;;;;;;;;5038066;28;20056;-75
2022/01/27 03:31:15;;;;;;;793.60;343.25;;;;;;;;;;5057947;28;20028;-74
2022/01/27 03:33:41;;;;;;;791.13;343.33;;;;;;;;;;5032999;28;20040;-75
2022/01/27 03:36:07;;;;;;;790.80;339.92;;;;;;;;;;5039370;28;20036;-75
2022/01/27 03:38:33;;;;;;;792.28;342.27;;;;;;;;;;5056401;28;20033;-75
2022/01/27 03:41:04;;;;;;;792.47;341.65;;;;;;;;;;5052282;28;20032;-75
2022/01/27 03:43:30;;;;;;;791.60;343.05;;;;;;;;;;5038046;28;20496;-75
2022/01/27 03:45:56;;;;;;;795.72;350.67;;;;;;;;;;5039912;28;20032;-75
2022/01/27 03:48:22;;;;;;;791.10;342.55;;;;;;;;;;5056061;28;20781;-75
2022/01/27 03:50:48;;;;;;;797.38;352.67;;;;;;;;;;5039039;28;20043;-75
2022/01/27 03:53:15;;;;;;;793.55;350.08;;;;;;;;;;5056873;28;20438;-75
2022/01/27 03:55:41;;;;;;;790.10;344.42;;;;;;;;;;5059603;28;20115;-75
2022/01/27 03:58:07;;;;;;;791.83;349.88;;;;;;;;;;5035599;28;20032;-75
2022/01/27 04:00:33;;;;;;;803.50;344.83;;;;;;;;;;5061735;28;20028;-75
2022/01/27 04:03:05;;;;;;;796.85;348.55;;;;;;;;;;5063019;28;20032;-75
2022/01/27 04:05:37;;;;;;;790.55;348.80;;;;;;;;;;5038241;28;20524;-75
2022/01/27 04:08:04;;;;;;;788.15;337.83;;;;;;;;;;5056926;28;20055;-75
2022/01/27 04:10:30;;;;;;;790.80;346.27;;;;;;;;;;5055039;28;20067;-75
2022/01/27 04:12:56;;;;;;;789.08;343.25;;;;;;;;;;5060469;28;20086;-75
2022/01/27 04:15:22;;;;;;;789.22;341.20;;;;;;;;;;5060519;28;20048;-75
2022/01/27 04:17:48;;;;;;;791.25;340.83;;;;;;;;;;5062259;28;20033;-74
2022/01/27 04:20:15;;;;;;;790.90;336.92;;;;;;;;;;5041432;28;20021;-75
2022/01/27 04:22:41;;;;;;;792.63;343.17;;;;;;;;;;5060332;28;20088;-75
2022/01/27 04:25:07;;;;;;;787.38;343.20;;;;;;;;;;5040048;28;20113;-75
2022/01/27 04:27:37;;;;;;;788.33;339.15;;;;;;;;;;5058704;28;20110;-75
2022/01/27 04:30:05;;;;;;;787.60;343.33;;;;;;;;;;5059236;28;20031;-75
2022/01/27 04:32:39;;;;;;;789.13;341.73;;;;;;;;;;5059046;28;20533;-75
2022/01/27 04:35:07;;;;;;;789.40;339.85;;;;;;;;;;5037884;28;20040;-75
2022/01/27 04:37:39;;;;;;;787.97;341.80;;;;;;;;;;5040314;28;20256;-75
2022/01/27 04:40:11;;;;;;;796.40;341.17;;;;;;;;;;5060165;28;20487;-75
2022/01/27 04:42:54;;;;;;;786.40;338.05;;;;;;;;;;5057120;28;20625;-74
2022/01/27 04:45:25;;;;;;;786.67;335.48;;;;;;;;;;5056860;28;20079;-75
2022/01/27 04:47:57;;;;;;;;;;;;;;;;;;5060181;28;20028;-75
2022/01/27 04:50:22;;;;;;;779.92;315.75;;;;;;;;;;5058022;28;20431;-74
2022/01/27 04:52:51;;;;;;;781.60;331.75;;;;;;;;;;5041869;28;20020;-75
2022/01/27 04:55:20;;;;;;;788.05;342.65;;;;;;;;;;5039030;28;20016;-75
2022/01/27 04:57:46;;;;;;;788.42;346.38;;;;;;;;;;5059375;28;20507;-75
2022/01/27 05:00:15;;;;;;;786.50;340.20;;;;;;;;;;5033257;28;20779;-75
2022/01/27 05:02:55;;;;;;;789.17;345.65;;;;;;;;;;5060081;28;20124;-75
2022/01/27 05:05:22;;;;;;;587.00;258.23;;;;;;;;;;5048762;28;20021;-75
2022/01/27 05:07:58;;;;;;;787.72;337.40;;;;;;;;;;5062290;28;20274;-75
2022/01/27 05:10:28;;;;;;;788.60;348.67;;;;;;;;;;5038176;28;20024;-75
2022/01/27 05:13:01;;;;;;;791.60;345.15;;;;;;;;;;5061174;28;20029;-75
2022/01/27 05:15:27;;;;;;;794.22;348.55;;;;;;;;;;5060548;28;20044;-75
2022/01/27 05:17:53;;;;;;;791.65;349.15;;;;;;;;;;5058458;28;20317;-75
2022/01/27 05:20:19;;;;;;;788.85;346.67;;;;;;;;;;5058792;28;20238;-75
2022/01/27 05:22:44;;;;;;;786.95;335.75;;;;;;;;;;5031117;28;20456;-74
2022/01/27 05:25:11;;;;;;;786.75;345.80;;;;;;;;;;5060971;28;20037;-75
2022/01/27 05:27:36;;;;;;;786.67;341.88;;;;;;;;;;5057586;28;20067;-74
2022/01/27 05:30:03;;;;;;;782.92;333.42;;;;;;;;;;5056833;28;20056;-75
2022/01/27 05:32:29;;;;;;;786.30;338.10;;;;;;;;;;5058209;28;20268;-74
2022/01/27 05:34:55;;;;;;;787.28;339.10;;;;;;;;;;5038662;28;20029;-75
2022/01/27 05:37:21;;;;;;;788.90;343.58;;;;;;;;;;5055678;28;20047;-75
2022/01/27 05:39:47;;;;;;;790.03;345.83;;;;;;;;;;5057564;28;20552;-75
2022/01/27 05:42:13;;;;;;;789.55;349.50;;;;;;;;;;5055451;28;20099;-75
2022/01/27 05:44:39;;;;;;;789.70;348.00;;;;;;;;;;5059831;28;20044;-75
2022/01/27 05:47:05;;;;;;;789.22;347.65;;;;;;;;;;5057729;28;20028;-75
2022/01/27 05:49:31;;;;;;;789.45;348.63;;;;;;;;;;5057119;28;20496;-75
2022/01/27 05:51:57;;;;;;;790.45;348.70;;;;;;;;;;5058869;28;20068;-74
2022/01/27 05:54:23;;;;;;;793.13;353.15;;;;;;;;;;5037561;28;20086;-75
2022/01/27 05:56:49;;;;;;;788.00;345.42;;;;;;;;;;5057712;28;20314;-76
2022/01/27 05:59:15;;;;;;;791.42;353.75;;;;;;;;;;5033154;28;20032;-74
2022/01/27 06:01:40;;;;;;;792.83;348.85;;;;;;;;;;5058727;28;20440;-75
2022/01/27 06:04:06;;;;;;;797.22;362.17;;;;;;;;;;5059241;28;20025;-74
2022/01/27 06:06:32;;;;;;;791.95;354.23;;;;;;;;;;5058255;28;20028;-73
2022/01/27 06:08:58;;;;;;;792.33;361.05;;;;;;;;;;5057034;28;20032;-75
2022/01/27 06:11:24;;;;;;;794.00;361.08;;;;;;;;;;5037429;28;20507;-75
2022/01/27 06:13:50;;;;;;;790.80;352.30;;;;;;;;;;5058307;28;20041;-75
2022/01/27 06:16:16;;;;;;;789.45;347.38;;;;;;;;;;5062612;28;20029;-75
2022/01/27 06:18:42;;;;;;;792.00;355.73;;;;;;;;;;5056790;28;20032;-75
2022/01/27 06:21:10;;;;;;;792.92;359.73;;;;;;;;;;5058094;28;20027;-75
2022/01/27 06:23:36;;;;;;;792.70;356.67;;;;;;;;;;5055972;28;20082;-75
2022/01/27 06:26:02;;;;;;;790.53;354.13;;;;;;;;;;5038888;28;20028;-75
2022/01/27 06:28:28;;;;;;;792.90;357.75;;;;;;;;;;5035367;28;20421;-75
2022/01/27 06:30:54;;;;;;;793.97;354.88;;;;;;;;;;5057205;28;20033;-75
2022/01/27 06:33:22;;;;;;;790.17;360.50;;;;;;;;;;5037311;28;20425;-74
2022/01/27 06:35:48;;;;;;;794.17;357.38;;;;;;;;;;5057130;28;20062;-75
2022/01/27 06:38:14;;;;;;;788.28;337.45;;;;;;;;;;5056081;28;20083;-74
2022/01/27 06:40:40;;;;;;;791.97;355.75;;;;;;;;;;5055540;28;20761;-75
2022/01/27 06:43:06;;;;;;;790.65;345.45;;;;;;;;;;5040376;28;20112;-75
2022/01/27 06:45:32;;;;;;;789.08;347.42;;;;;;;;;;5036117;28;20036;-75
2022/01/27 06:47:58;;;;;;;787.22;348.90;;;;;;;;;;5060687;28;20052;-75
2022/01/27 06:50:24;;;;;;;791.63;346.02;;;;;;;;;;5057376;28;20120;-75
2022/01/27 06:52:50;;;;;;;787.92;341.35;;;;;;;;;;5068734;28;20326;-74
2022/01/27 06:55:21;;;;;;;791.15;345.42;;;;;;;;;;5049139;28;20107;-75
2022/01/27 06:57:47;;;;;;;785.78;336.60;;;;;;;;;;5067537;28;20024;-75
2022/01/27 07:00:13;;;;;;;785.97;339.10;;;;;;;;;;5050390;28;20029;-74
2022/01/27 07:02:39;;;;;;;783.33;339.88;;;;;;;;;;5069279;28;20033;-74
2022/01/27 07:05:05;;;;;;;784.90;340.88;;;;;;;;;;5039435;28;20245;-75
2022/01/27 07:07:31;;;;;;;792.40;345.52;;;;;;;;;;5055089;28;20021;-75
2022/01/27 07:09:57;;;;;;;786.28;340.45;;;;;;;;;;5033494;28;20024;-75
2022/01/27 07:12:23;;;;;;;782.92;336.92;;;;;;;;;;5030154;28;20113;-75
2022/01/27 07:14:50;;;;;;;785.53;337.65;;;;;;;;;;5059179;28;20367;-86
2022/01/27 07:17:18;;;;;;;782.97;333.90;;;;;;;;;;5043215;28;20029;-75
2022/01/27 07:19:44;;;;;;;786.08;342.35;;;;;;;;;;5063131;28;20029;-75
2022/01/27 07:22:16;;;;;;;787.33;341.33;;;;;;;;;;5056446;28;20041;-75
2022/01/27 07:24:42;;;;;;;780.42;331.52;;;;;;;;;;5069591;28;20082;-75
2022/01/27 07:27:08;;;;;;;785.35;340.23;;;;;;;;;;5044233;28;20119;-75
2022/01/27 07:29:34;;;;;;;784.20;338.65;;;;;;;;;;5059440;28;20436;-75
2022/01/27 07:32:00;;;;;;;785.30;341.17;;;;;;;;;;5050276;28;20154;-75
2022/01/27 07:34:26;;;;;;;786.88;342.20;;;;;;;;;;5066098;28;20185;-76
2022/01/27 07:36:57;;;;;;;785.55;344.73;;;;;;;;;;5061237;28;20024;-76
2022/01/27 07:39:23;;;;;;;;;;;;;;;;;;5039979;28;20292;-76
2022/01/27 07:41:49;;;;;;;780.78;320.70;;;;;;;;;;5058078;28;20280;-76
2022/01/27 07:44:15;;;;;;;783.13;336.10;;;;;;;;;;5060155;28;20059;-76
2022/01/27 07:46:41;;;;;;;791.47;351.65;;;;;;;;;;5060082;28;20024;-76
2022/01/27 07:49:07;;;;;;;790.03;346.52;;;;;;;;;;5041860;28;20036;-76
2022/01/27 07:51:33;;;;;;;791.90;353.25;;;;;;;;;;5058560;28;20056;-76
2022/01/27 07:53:59;;;;;;;790.60;350.67;;;;;;;;;;5061151;28;20324;-76
2022/01/27 07:56:26;;;;;;;791.53;353.75;;;;;;;;;;5064925;28;20388;-76
2022/01/27 07:58:52;;;;;;;790.25;348.83;;;;;;;;;;5067074;28;20120;-72
2022/01/27 08:01:18;;;;;;;789.38;354.73;;;;;;;;;;5054687;28;20116;-76
2022/01/27 08:03:50;;;;;;;789.97;354.73;;;;;;;;;;5070726;28;20039;-77
2022/01/27 08:06:17;;;;;;;792.15;354.50;;;;;;;;;;5054792;28;20028;-77
2022/01/27 08:08:43;;;;;;;791.35;357.70;;;;;;;;;;5072730;28;20539;-77
2022/01/27 08:11:09;;;;;;;792.55;352.67;;;;;;;;;;5038179;28;20641;-77
2022/01/27 08:13:36;;;;;;;791.78;355.85;;;;;;;;;;5053628;28;20052;-75
2022/01/27 08:16:02;;;;;;;791.67;360.92;;;;;;;;;;5064772;28;20691;-76
2022/01/27 08:18:28;;;;;;;793.03;362.88;;;;;;;;;;5055175;28;20016;-77
2022/01/27 08:20:54;;;;;;;788.88;357.98;;;;;;;;;;5039107;28;20030;-77
2022/01/27 08:23:21;;;;;;;794.40;363.42;;;;;;;;;;5058946;28;20029;-77
2022/01/27 08:25:59;;;;;;;794.22;368.45;;;;;;;;;;5062537;28;20111;-77
2022/01/27 08:28:38;;;;;;;792.08;357.55;;;;;;;;;;5046787;28;20472;-77
2022/01/27 08:31:05;;;;;;;792.72;357.65;;;;;;;;;;5064872;28;20024;-77
2022/01/27 08:33:32;;;;;;;795.50;367.88;;;;;;;;;;5040850;28;20037;-77
2022/01/27 08:36:01;;;;;;;795.78;377.70;;;;;;;;;;5048300;28;20031;-84
2022/01/27 08:38:27;;;;;;;797.78;374.23;;;;;;;;;;5047854;28;20479;-76
2022/01/27 08:40:54;;;;;;;795.97;373.73;;;;;;;;;;5060918;28;20058;-77
2022/01/27 08:43:35;;;;;;;796.10;371.05;;;;;;;;;;5064436;28;20098;-77
2022/01/27 08:46:01;;;;;;;796.38;374.55;;;;;;;;;;5039875;28;20139;-77
2022/01/27 08:48:32;;;;;;;797.65;383.83;;;;;;;;;;5052318;28;20051;-77
2022/01/27 08:51:10;;;;;;;797.88;379.13;;;;;;;;;;5055666;28;20040;-77
2022/01/27 08:53:38;;;;;;;796.80;377.25;;;;;;;;;;5060539;28;20032;-77
2022/01/27 08:56:06;;;;;;;798.88;386.90;;;;;;;;;;5057883;28;20028;-78
2022/01/27 08:58:34;;;;;;;796.15;382.40;;;;;;;;;;5056709;28;20043;-76
2022/01/27 09:01:03;;;;;;;799.38;386.67;;;;;;;;;;5041151;28;20467;-77
2022/01/27 09:03:30;;;;;;;800.83;387.02;;;;;;;;;;5057955;28;20122;-77
2022/01/27 09:05:57;;;;;;;795.88;384.50;;;;;;;;;;5058794;28;20025;-78
2022/01/27 09:08:27;;;;;;;798.88;381.77;;;;;;;;;;5044996;28;20396;-77
2022/01/27 09:10:54;;;;;;;581.83;278.48;;;;;;;;;;5047047;28;20135;-76
2022/01/27 09:13:23;;;;;;;802.97;393.48;;;;;;;;;;5046411;28;20033;-76
2022/01/27 09:15:50;;;;;;;804.17;378.95;;;;;;;;;;5071941;28;20051;-76
2022/01/27 09:18:16;;;;;;;801.25;395.10;;;;;;;;;;5043763;28;20024;-77
2022/01/27 09:20:43;;;;;;;800.78;390.27;;;;;;;;;;5040585;28;20031;-75
2022/01/27 09:23:13;;;;;;;801.70;395.92;;;;;;;;;;5043511;28;20108;-76
2022/01/27 09:25:44;;;;;;;803.30;393.70;;;;;;;;;;5064325;28;20040;-75
2022/01/27 09:28:11;;;;;;;804.58;394.35;;;;;;;;;;5058303;28;20482;-75
2022/01/27 09:30:38;;;;;;;798.53;383.50;;;;;;;;;;5072168;28;20036;-76
2022/01/27 09:33:04;;;;;;;806.30;408.90;;;;;;;;;;5065868;28;20029;-76
2022/01/27 09:35:31;;;;;;;810.17;408.42;;;;;;;;;;5067993;28;20031;-75
2022/01/27 09:37:57;;;;;;;804.38;402.80;;;;;;;;;;5040047;28;20031;-75
2022/01/27 09:40:24;;;;;;;804.33;408.13;;;;;;;;;;5059743;28;20107;-75
2022/01/27 09:42:53;;;;;;;805.63;411.45;;;;;;;;;;5064567;28;20074;-76
2022/01/27 09:45:19;;;;;;;809.58;416.58;;;;;;;;;;5058859;28;20107;-76
2022/01/27 09:47:54;;;;;;;804.58;402.27;;;;;;;;;;5041902;28;20143;-78
2022/01/27 09:50:28;;;;;;;806.80;410.27;;;;;;;;;;5039542;28;20021;-76
2022/01/27 09:52:56;;;;;;;808.35;409.02;;;;;;;;;;5038550;28;20012;-76
2022/01/27 09:55:22;;;;;;;805.85;402.27;;;;;;;;;;5036866;28;20025;-76
2022/01/27 09:57:49;;;;;;;813.05;415.75;;;;;;;;;;5042766;28;20043;-76
2022/01/27 10:00:15;;;;;;;806.63;412.15;;;;;;;;;;5067980;28;20771;-76
2022/01/27 10:03:00;;;;;;;807.65;410.27;;;;;;;;;;5070106;28;20495;-76
2022/01/27 10:05:26;;;;;;;805.30;404.48;;;;;;;;;;5046618;28;20422;-76
2022/01/27 10:08:00;;;;;;;806.80;414.23;;;;;;;;;;5069055;28;20429;-76
2022/01/27 10:10:26;;;;;;;805.90;409.98;;;;;;;;;;5059840;28;20171;-76
2022/01/27 10:13:00;;;;;;;814.70;415.17;;;;;;;;;;4989162;28;20299;-77
2022/01/27 10:15:26;;;;;;;820.90;426.48;;;;;;;;;;5007433;28;20038;-78
2022/01/27 10:18:04;;;;;;;818.38;430.27;;;;;;;;;;4988633;28;20036;-77
2022/01/27 10:20:31;;;;;;;816.92;423.33;;;;;;;;;;4992306;28;20049;-78
2022/01/27 10:23:10;;;;;;;812.50;422.70;;;;;;;;;;4987233;28;20116;-77
2022/01/27 10:25:46;;;;;;;820.78;428.00;;;;;;;;;;4985111;28;20049;-77
2022/01/27 10:28:34;;;;;;;823.55;428.67;;;;;;;;;;4987707;28;20531;-77
2022/01/27 10:31:21;;;;;;;820.25;417.85;;;;;;;;;;4992721;28;20031;-76
2022/01/27 10:33:47;;;;;;;819.45;422.88;;;;;;;;;;4991264;28;20396;-76
2022/01/27 10:36:17;;;;;;;813.33;418.40;;;;;;;;;;4988148;28;20036;-77
2022/01/27 10:38:43;;;;;;;818.42;421.80;;;;;;;;;;4988259;28;20022;-77
2022/01/27 10:41:09;;;;;;;811.10;416.88;;;;;;;;;;4993144;28;20930;-78
2022/01/27 10:43:35;;;;;;;814.97;419.45;;;;;;;;;;4996401;28;20027;-76
2022/01/27 10:46:29;;;;;;;819.85;428.13;;;;;;;;;;4994943;28;20061;-76
2022/01/27 10:49:06;;;;;;;818.45;418.08;;;;;;;;;;4992323;28;20038;-78
2022/01/27 10:51:41;;;;;;;818.67;435.65;;;;;;;;;;4988092;28;20038;-78
2022/01/27 10:54:22;;;;;;;820.70;422.65;;;;;;;;;;4981869;28;20042;-76
2022/01/27 10:56:49;;;;;;;818.60;424.67;;;;;;;;;;4983482;28;20363;-77
2022/01/27 10:59:16;;;;;;;822.22;432.98;;;;;;;;;;4984570;28;20045;-78
2022/01/27 11:01:43;;;;;;;828.95;443.50;;;;;;;;;;4983269;28;20026;-77
2022/01/27 11:04:10;;;;;;;821.92;437.80;;;;;;;;;;4987459;28;20102;-78
2022/01/27 11:06:37;;;;;;;824.30;443.27;;;;;;;;;;4991114;28;20455;-78
2022/01/27 11:09:08;;;;;;;831.70;442.80;;;;;;;;;;4982127;28;20025;-78
2022/01/27 11:11:35;;;;;;;824.30;440.20;;;;;;;;;;4981039;28;20491;-77
2022/01/27 11:14:01;;;;;;;824.97;442.23;;;;;;;;;;4984472;28;20054;-77
2022/01/27 11:16:34;;;;;;;820.20;442.05;;;;;;;;;;4983190;28;20067;-76
2022/01/27 11:19:14;;;;;;;823.72;443.27;;;;;;;;;;4985052;28;20018;-77
2022/01/27 11:21:43;;;;;;;821.17;434.48;;;;;;;;;;4988408;28;20043;-77
2022/01/27 11:24:24;;;;;;;826.10;448.63;;;;;;;;;;4972893;28;20049;-77
2022/01/27 11:26:52;;;;;;;820.72;441.35;;;;;;;;;;4973776;28;20042;-78
2022/01/27 11:29:19;;;;;;;827.28;450.42;;;;;;;;;;4971043;28;20342;-78
2022/01/27 11:31:58;;;;;;;831.35;456.92;;;;;;;;;;4974522;28;20052;-78
2022/01/27 11:34:43;;;;;;;846.25;464.63;;;;;;;;;;4969224;28;20019;-79
2022/01/27 11:37:09;;;;;;;830.50;455.05;;;;;;;;;;4977902;28;20023;-79
2022/01/27 11:39:52;;;;;;;827.40;463.45;;;;;;;;;;4977699;28;20053;-77
2022/01/27 11:42:38;;;;;;;816.80;438.38;;;;;;;;;;4972614;28;20099;-77
2022/01/27 11:45:36;;;;;;;836.88;456.08;;;;;;;;;;4966984;28;20078;-78
2022/01/27 11:48:08;;;;;;;820.65;439.60;;;;;;;;;;4990929;28;20031;-78
2022/01/27 11:50:38;;;;;;;823.92;452.40;;;;;;;;;;4977005;28;20643;-79
2022/01/27 11:53:10;;;;;;;824.92;450.65;;;;;;;;;;4972921;28;20507;-77
2022/01/27 11:55:36;;;;;;;832.17;458.85;;;;;;;;;;4973557;28;20030;-78
2022/01/27 11:58:21;;;;;;;834.05;463.42;;;;;;;;;;4974910;28;20514;-77
2022/01/27 12:01:10;;;;;;;826.35;460.90;;;;;;;;;;4975605;28;20035;-78
2022/01/27 12:03:36;;;;;;;821.92;449.02;;;;;;;;;;4981284;28;20038;-79
2022/01/27 12:06:21;;;;;;;830.60;460.77;;;;;;;;;;4978186;28;20026;-79
2022/01/27 12:08:48;;;;;;;833.63;459.08;;;;;;;;;;4955363;28;20584;-78
2022/01/27 12:11:42;;;;;;;832.85;464.05;;;;;;;;;;4968070;28;20070;-79
2022/01/27 12:14:08;;;;;;;831.85;458.50;;;;;;;;;;4948203;28;20069;-79
2022/01/27 12:19:11;;;;;;;831.72;468.02;;;;;;;;;;4968370;28;20039;-79
2022/01/27 12:21:40;;;;;;;828.70;463.45;;;;;;;;;;4969424;28;20121;-77
2022/01/27 12:24:13;;;;;;;828.55;449.73;;;;;;;;;;4972300;28;20146;-78
2022/01/27 12:26:48;;;;;;;825.00;449.48;;;;;;;;;;4969425;28;20026;-79
2022/01/27 12:29:26;;;;;;;828.65;447.23;;;;;;;;;;4967268;28;20212;-79
2022/01/27 12:31:56;;;;;;;820.63;445.55;;;;;;;;;;4985981;28;20474;-78
2022/01/27 12:34:26;;;;;;;830.78;463.13;;;;;;;;;;4966931;28;20500;-75
2022/01/27 12:37:07;;;;;;;835.00;465.55;;;;;;;;;;4964990;28;20143;-78
2022/01/27 12:39:41;;;;;;;826.40;460.20;;;;;;;;;;4971313;28;20034;-77
2022/01/27 12:42:09;;;;;;;827.45;459.00;;;;;;;;;;4977657;28;20183;-78
2022/01/27 12:44:37;;;;;;;827.17;460.38;;;;;;;;;;4969682;28;20038;-77
2022/01/27 12:47:08;;;;;;;836.33;483.38;;;;;;;;;;4969702;28;20171;-79
2022/01/27 12:50:03;;;;;;;832.20;479.75;;;;;;;;;;4965002;28;20533;-76
2022/01/27 12:52:32;;;;;;;830.80;479.70;;;;;;;;;;4971047;28;20038;-78
2022/01/27 12:54:59;;;;;;;606.60;346.30;;;;;;;;;;4972684;28;20520;-77
2022/01/27 12:57:27;;;;;;;832.03;491.13;;;;;;;;;;4971704;28;20027;-77
2022/01/27 12:59:58;;;;;;;826.95;488.13;;;;;;;;;;4967987;28;20137;-77
2022/01/27 13:02:26;;;;;;;828.67;489.00;;;;;;;;;;4968904;28;20094;-77
2022/01/27 13:04:56;;;;;;;830.83;494.67;;;;;;;;;;4971576;28;20312;-77
2022/01/27 13:07:28;;;;;;;832.65;490.25;;;;;;;;;;4974861;28;20041;-77
2022/01/27 13:09:54;;;;;;;833.13;496.55;;;;;;;;;;4976621;28;20212;-79
2022/01/27 13:12:29;;;;;;;830.40;492.70;;;;;;;;;;4968375;28;20412;-73
2022/01/27 13:15:06;;;;;;;828.97;486.65;;;;;;;;;;4969230;28;20129;-78
2022/01/27 13:17:50;;;;;;;830.88;488.65;;;;;;;;;;4974430;28;20070;-78
2022/01/27 13:20:27;;;;;;;827.08;482.45;;;;;;;;;;4971351;28;20023;-77
2022/01/27 13:23:07;;;;;;;828.60;483.23;;;;;;;;;;4968727;28;20081;-78
2022/01/27 13:25:39;;;;;;;825.60;476.98;;;;;;;;;;4974170;28;20345;-78
2022/01/27 13:28:09;;;;;;;835.90;483.80;;;;;;;;;;4974626;28;20084;-78
2022/01/27 13:30:36;;;;;;;831.90;486.48;;;;;;;;;;4971338;28;20044;-78
2022/01/27 13:33:06;;;;;;;832.90;481.85;;;;;;;;;;4969731;28;20100;-79
2022/01/27 13:35:34;;;;;;;830.75;491.00;;;;;;;;;;4971799;28;20419;-78
2022/01/27 13:38:18;;;;;;;836.58;484.33;;;;;;;;;;4971436;28;20019;-77
2022/01/27 13:43:35;;;;;;;829.28;478.52;;;;;;;;;;4978086;28;20040;-78
2022/01/27 13:46:02;;;;;;;832.72;474.73;;;;;;;;;;4974324;28;20407;-78
2022/01/27 13:48:27;;;;;;;840.30;496.88;;;;;;;;;;4974463;28;20155;-77
2022/01/27 13:50:58;;;;;;;835.55;486.52;;;;;;;;;;4975787;28;20030;-78
2022/01/27 13:53:25;;;;;;;834.88;491.05;;;;;;;;;;4982162;28;20030;-77
2022/01/27 13:55:55;;;;;;;831.97;481.15;;;;;;;;;;4976016;28;20069;-78
2022/01/27 13:58:26;;;;;;;828.35;477.00;;;;;;;;;;4973400;28;20027;-78
2022/01/27 14:01:02;;;;;;;835.55;480.95;;;;;;;;;;4977772;28;20034;-78
2022/01/27 14:03:39;;;;;;;833.55;474.20;;;;;;;;;;4975352;28;20453;-78
2022/01/27 14:06:05;;;;;;;840.95;495.27;;;;;;;;;;4971246;28;20042;-78
2022/01/27 14:08:57;;;;;;;839.33;486.73;;;;;;;;;;4976083;28;20070;-78
2022/01/27 14:11:36;;;;;;;832.75;481.63;;;;;;;;;;4972649;28;20062;-78
2022/01/27 14:14:04;;;;;;;831.80;479.05;;;;;;;;;;4979927;28;20031;-78
2022/01/27 14:16:32;;;;;;;828.90;470.05;;;;;;;;;;4972516;28;20050;-78
2022/01/27 14:19:12;;;;;;;823.92;466.00;;;;;;;;;;4973217;28;20110;-78
2022/01/27 14:21:45;;;;;;;831.17;470.08;;;;;;;;;;4978511;28;20019;-78
2022/01/27 14:24:14;;;;;;;836.30;478.33;;;;;;;;;;4972480;28;20129;-78
2022/01/27 14:26:44;;;;;;;834.87;486.50;;;;;;;;;;4972692;28;20057;-79
2022/01/27 14:29:19;;;;;;;832.55;471.70;;;;;;;;;;4977122;28;20037;-78
2022/01/27 14:31:47;;;;;;;831.22;474.02;;;;;;;;;;4977345;28;20524;-78
2022/01/27 14:34:33;;;;;;;838.60;483.00;;;;;;;;;;4981359;28;20057;-78
2022/01/27 14:36:59;;;;;;;831.25;473.20;;;;;;;;;;4973512;28;20022;-78
2022/01/27 14:39:25;;;;;;;832.60;475.10;;;;;;;;;;4971002;28;20396;-78
2022/01/27 14:41:51;;;;;;;832.75;477.63;;;;;;;;;;4969655;28;20034;-78
2022/01/27 14:44:17;;;;;;;831.17;476.48;;;;;;;;;;4972472;28;20026;-78